Terminal Aerodrome Forecast
Issued by NWS

Home | Current Version | Previous Version | Text Only | Print | Product List | Glossary On
Versions: 1 2 3 4 5 6 7 8 9 10 11 12 13 14 15 16 17 18 19 20 21 22 23 24 25 26 27 28 29 30
000
FTUS46 KSGX 011400 AAA
TAFSAN
TAF AMD
KSAN 011449Z 0115/0218 VRB04KT P6SM BKN014
     FM011600 VRB04KT P6SM SCT015 SCT200
     FM012000 27009KT P6SM SCT200
     FM020100 VRB05KT P6SM SCT200
     FM020500 VRB05KT P6SM BKN010
     FM021530 VRB05KT P6SM FEW010 SCT200=

USA.gov is the U.S. government's official web portal to all federal, state and local government web resources and services.